Spartanburg, SC

11:53 AM EDT on September 05, 2015 (GMT -0400)
Oak Forest | | Change Station
CLOSE
Current Station
Personal Weather Station
Location: Spartanburg, SC
Elevation: 787 ft
Nearby Weather Stations

Elev 787 ft 34.91 °N, 82.00 °W | Updated 7 seconds ago

Overcast
Overcast
76.5 °F
Feels Like 78 °F
N
0.2
Wind Variable Wind from SE
Gusts 2.5 mph

Today
High -- | Low -- °F
--% Chance of Precip.
Yesterday
High -- | Low -- °F
Precip. -- in
7:03 AM 7:49 PM
Waning Gibbous, 47% visible
Pressure 30.16 in
Visibility 8.0 miles
Clouds Few 1700 ft
Overcast 2400 ft
Heat Index 78 °F
Dew Point 70 °F
Humidity 82%
Rainfall 0.00 in
Snow Depth Not available.
UV 3.0 out of 12
Pollen 8.20 out of 12
Air Quality Not available.
Flu Activity Not available.
METAR KGSP 051453Z 01004KT 8SM FEW017 OVC024 23/20 A3019 RMK AO2 SLP212 T02330200 51015
Pressure 30.16 in
Visibility 8.0 miles
Clouds Few 1700 ft
Overcast 2400 ft
Heat Index 78 °F
Dew Point 70 °F
Humidity 82%
Rainfall 0.00 in
Snow Depth Not available.
UV 3.0 out of 12
Pollen 8.20 out of 12
Air Quality Not available.
Flu Activity Not available.
METAR KGSP 051453Z 01004KT 8SM FEW017 OVC024 23/20 A3019 RMK AO2 SLP212 T02330200 51015

10-Day Weather Forecast

×

Almanac

Astronomy

Sep. 05, 2015 Rise Set
Actual Time
Civil Twilight
Nautical Twilight
Astronomical Twilight
Moon
Length of Visible Light
Length of Day
Tomorrow will be .
, % of the Moon is Illuminated

Today's Extremes

State Highs State Lows

Community

WunderPhotos

Upload Photos

1,852,483 photos uploaded!

WunderBlogs® & News

Nearby

Air Quality

  Air Quality AQ Index Pollutant
Not available.

Snow Depth

Station Depth Elevation

Earthquake Activity

City Distance Mag. Time & Date
Minimum magnitude displayed is 2.5.

Coastal Water Temperatures

Place Temperature

Stations

Nearby Weather Stations

Station Location Temp. Windchill Dew Point Humidity Wind Precip. Elev Updated Type